createdAt,value
2023-04-15T00:01:13.195Z,39.86
2023-04-15T00:03:40.156Z,39.92
2023-04-15T00:06:07.568Z,40.15
2023-04-15T00:08:34.443Z,40.17
2023-04-15T00:11:03.287Z,40.17
2023-04-15T00:13:30.215Z,40.30
2023-04-15T00:15:57.345Z,40.25
2023-04-15T00:18:24.889Z,40.42
2023-04-15T00:20:52.454Z,40.46
2023-04-15T00:23:19.478Z,40.26
2023-04-15T00:25:46.866Z,39.99
2023-04-15T00:28:13.864Z,40.13
2023-04-15T00:30:40.704Z,40.53
2023-04-15T00:33:07.928Z,40.40
2023-04-15T00:35:35.795Z,40.24
2023-04-15T00:38:04.812Z,40.28
2023-04-15T00:40:31.629Z,40.16
2023-04-15T00:42:58.404Z,40.60
2023-04-15T00:45:26.490Z,40.55
2023-04-15T00:47:54.337Z,40.29
2023-04-15T00:50:21.214Z,40.33
2023-04-15T00:52:49.125Z,40.67
2023-04-15T00:55:16.164Z,40.50
2023-04-15T00:57:43.067Z,40.35
2023-04-15T01:00:11.800Z,40.68
2023-04-15T01:02:39.644Z,40.66
2023-04-15T01:05:08.365Z,40.55
2023-04-15T01:07:35.719Z,40.83
2023-04-15T01:10:04.438Z,40.80
2023-04-15T01:12:33.332Z,40.98
2023-04-15T01:15:00.675Z,40.87
2023-04-15T01:17:28.166Z,40.66
2023-04-15T01:19:57.984Z,40.95
2023-04-15T01:22:27.090Z,40.90
2023-04-15T01:25:10.789Z,41.17
2023-04-15T01:27:40.900Z,41.04
2023-04-15T01:30:09.223Z,41.05
2023-04-15T01:32:37.189Z,41.04
2023-04-15T01:35:04.977Z,41.21
2023-04-15T01:37:32.920Z,41.18
2023-04-15T01:40:00.199Z,41.33
2023-04-15T01:42:27.751Z,41.14
2023-04-15T01:44:54.939Z,41.29
2023-04-15T01:47:22.391Z,41.56
2023-04-15T01:49:49.350Z,41.55
2023-04-15T01:52:16.290Z,41.46
2023-04-15T01:54:43.277Z,41.68
2023-04-15T01:57:12.122Z,41.55
2023-04-15T01:59:38.999Z,41.82
2023-04-15T02:02:06.337Z,41.73
2023-04-15T02:04:34.467Z,41.92
2023-04-15T02:07:01.706Z,42.09
2023-04-15T02:09:29.180Z,41.96
2023-04-15T02:11:56.449Z,42.09
2023-04-15T02:14:24.688Z,42.48
2023-04-15T02:16:51.815Z,42.52
2023-04-15T02:19:18.856Z,42.56
2023-04-15T02:21:45.673Z,42.43
2023-04-15T02:24:12.527Z,41.99
2023-04-15T02:26:41.487Z,42.54
2023-04-15T02:29:08.406Z,42.31
2023-04-15T02:31:40.328Z,42.30
2023-04-15T02:34:07.349Z,42.45
2023-04-15T02:36:34.643Z,42.47
2023-04-15T02:39:02.176Z,42.40
2023-04-15T02:41:30.408Z,42.50
2023-04-15T02:43:58.038Z,42.41
2023-04-15T02:46:24.992Z,42.45
2023-04-15T02:48:53.286Z,42.17
2023-04-15T02:51:25.896Z,42.28
2023-04-15T02:53:52.732Z,42.02
2023-04-15T02:56:19.875Z,42.15
2023-04-15T02:58:50.454Z,41.93
2023-04-15T03:01:17.317Z,42.29
2023-04-15T03:03:44.473Z,42.24
2023-04-15T03:06:11.662Z,42.26
2023-04-15T03:08:38.500Z,42.06
2023-04-15T03:11:05.613Z,42.20
2023-04-15T03:13:33.846Z,42.50
2023-04-15T03:16:09.005Z,42.26
2023-04-15T03:18:36.203Z,42.53
2023-04-15T03:21:04.091Z,42.47
2023-04-15T03:23:34.670Z,42.55
2023-04-15T03:26:04.224Z,42.37
2023-04-15T03:28:32.891Z,42.23
2023-04-15T03:31:01.328Z,42.34
2023-04-15T03:33:29.563Z,42.24
2023-04-15T03:35:56.661Z,42.39
2023-04-15T03:38:23.569Z,42.14
2023-04-15T03:40:50.494Z,42.35
2023-04-15T03:43:17.327Z,42.76
2023-04-15T03:45:44.448Z,42.83
2023-04-15T03:48:17.671Z,42.84
2023-04-15T03:50:45.959Z,42.68
2023-04-15T03:53:12.862Z,42.70
2023-04-15T03:55:39.997Z,42.72
2023-04-15T03:58:06.984Z,43.04
2023-04-15T04:00:34.039Z,42.81
2023-04-15T04:03:01.087Z,43.10
2023-04-15T04:05:28.190Z,43.13
2023-04-15T04:07:55.341Z,42.76
2023-04-15T04:10:22.467Z,43.01
2023-04-15T04:12:49.713Z,43.19
2023-04-15T04:15:17.010Z,43.09
2023-04-15T04:17:43.841Z,43.06
2023-04-15T04:20:12.505Z,43.09
2023-04-15T04:22:40.510Z,43.06
2023-04-15T04:25:11.328Z,42.96
2023-04-15T04:27:38.396Z,42.98
2023-04-15T04:30:17.836Z,42.87
2023-04-15T04:32:54.997Z,42.88
2023-04-15T04:35:27.324Z,43.03
2023-04-15T04:37:59.119Z,42.81
2023-04-15T04:40:26.588Z,42.81
2023-04-15T04:42:54.666Z,42.72
2023-04-15T04:45:22.807Z,42.75
2023-04-15T04:47:49.858Z,42.82
2023-04-15T04:50:17.944Z,43.01
2023-04-15T04:52:44.807Z,42.92
2023-04-15T04:55:12.647Z,42.98
2023-04-15T04:57:39.778Z,43.21
2023-04-15T05:00:13.115Z,43.20
2023-04-15T05:02:42.403Z,43.19
2023-04-15T05:05:16.597Z,43.32
2023-04-15T05:07:44.023Z,43.17
2023-04-15T05:10:19.500Z,43.29
2023-04-15T05:12:50.613Z,43.30
2023-04-15T05:15:20.891Z,43.34
2023-04-15T05:17:48.473Z,43.27
2023-04-15T05:20:16.260Z,43.32
2023-04-15T05:22:47.564Z,43.51
2023-04-15T05:25:15.290Z,43.40
2023-04-15T05:27:42.253Z,43.64
2023-04-15T05:30:13.444Z,43.58
2023-04-15T05:32:41.998Z,43.61
2023-04-15T05:35:12.867Z,43.58
2023-04-15T05:37:40.862Z,43.58
2023-04-15T05:40:11.802Z,43.91
2023-04-15T05:42:41.917Z,43.95
2023-04-15T05:45:09.785Z,43.93
2023-04-15T05:47:37.780Z,44.00
2023-04-15T05:50:10.345Z,44.20
2023-04-15T05:52:38.154Z,44.21
2023-04-15T05:55:06.726Z,44.50
2023-04-15T05:57:37.607Z,44.44
2023-04-15T06:00:09.209Z,44.29
2023-04-15T06:02:39.393Z,44.45
2023-04-15T06:05:16.002Z,44.49
2023-04-15T06:07:44.063Z,44.26
2023-04-15T06:10:12.214Z,44.32
2023-04-15T06:12:39.745Z,44.45
2023-04-15T06:15:11.341Z,44.72
2023-04-15T06:17:38.521Z,44.48
2023-04-15T06:20:06.725Z,44.52
2023-04-15T06:22:34.004Z,44.45
2023-04-15T06:25:01.495Z,44.60
2023-04-15T06:27:29.037Z,44.81
2023-04-15T06:29:56.616Z,44.78
2023-04-15T06:32:24.574Z,44.79
2023-04-15T06:34:52.250Z,44.78
2023-04-15T06:37:22.669Z,44.84
2023-04-15T06:39:51.148Z,44.60
2023-04-15T06:42:18.155Z,44.66
2023-04-15T06:44:45.244Z,44.86
2023-04-15T06:47:15.433Z,45.00
2023-04-15T06:49:43.245Z,44.66
2023-04-15T06:52:11.304Z,45.10
2023-04-15T06:54:39.181Z,45.25
2023-04-15T06:57:07.884Z,44.76
2023-04-15T06:59:34.985Z,45.13
2023-04-15T07:02:02.168Z,45.15
2023-04-15T07:04:29.582Z,45.33
2023-04-15T07:06:57.856Z,44.90
2023-04-15T07:09:25.548Z,45.00
2023-04-15T07:12:24.413Z,45.30
2023-04-15T07:14:52.153Z,45.02
2023-04-15T07:17:19.059Z,45.36
2023-04-15T07:19:46.420Z,45.13
2023-04-15T07:22:13.601Z,44.84
2023-04-15T07:24:44.617Z,45.05
2023-04-15T07:27:12.112Z,45.16
2023-04-15T07:29:39.512Z,45.14
2023-04-15T07:32:07.689Z,44.92
2023-04-15T07:34:35.256Z,45.20
2023-04-15T07:37:02.621Z,44.75
2023-04-15T07:39:30.089Z,44.95
2023-04-15T07:41:57.130Z,44.87
2023-04-15T07:44:25.105Z,44.79
2023-04-15T07:46:52.757Z,44.59
2023-04-15T07:49:21.548Z,44.68
2023-04-15T07:51:50.429Z,44.55
2023-04-15T07:54:18.478Z,44.38
2023-04-15T07:56:46.377Z,44.43
2023-04-15T07:59:18.612Z,44.44
2023-04-15T08:01:45.617Z,44.37
2023-04-15T08:04:13.875Z,44.32
2023-04-15T08:06:40.991Z,44.28
2023-04-15T08:09:08.545Z,44.05
2023-04-15T08:11:36.756Z,43.83
2023-04-15T08:14:04.474Z,43.67
2023-04-15T08:16:33.546Z,43.49
2023-04-15T08:19:01.235Z,43.35
2023-04-15T08:21:35.561Z,43.29
2023-04-15T08:24:07.369Z,42.95
2023-04-15T08:26:34.383Z,42.41
2023-04-15T08:29:04.759Z,41.81
2023-04-15T08:31:32.710Z,41.23
2023-04-15T08:34:00.773Z,40.65
2023-04-15T08:36:29.123Z,40.34
2023-04-15T08:38:56.809Z,39.67
2023-04-15T08:41:36.109Z,39.50
2023-04-15T08:44:06.666Z,39.31
2023-04-15T08:46:37.160Z,39.24
2023-04-15T08:49:13.248Z,38.74
2023-04-15T08:51:46.878Z,38.76
2023-04-15T08:54:15.713Z,38.28
2023-04-15T08:56:43.453Z,37.99
2023-04-15T08:59:11.346Z,37.46
2023-04-15T09:01:41.487Z,37.51
2023-04-15T09:04:09.051Z,37.20
2023-04-15T09:06:36.390Z,37.22
2023-04-15T09:09:14.668Z,36.80
2023-04-15T09:11:43.307Z,36.91
2023-04-15T09:14:10.869Z,36.87
2023-04-15T09:17:01.453Z,36.81
2023-04-15T09:19:30.173Z,36.58
2023-04-15T09:22:06.465Z,36.52
2023-04-15T09:24:42.389Z,36.66
2023-04-15T09:27:11.460Z,36.19
2023-04-15T09:29:43.091Z,35.99
2023-04-15T09:32:18.336Z,35.83
2023-04-15T09:34:49.185Z,35.75
2023-04-15T09:37:31.607Z,35.63
2023-04-15T09:39:59.568Z,35.57
2023-04-15T09:42:30.453Z,35.18
2023-04-15T09:45:12.250Z,35.17
2023-04-15T09:47:40.849Z,34.92
2023-04-15T09:50:12.332Z,34.68
2023-04-15T09:52:46.863Z,34.32
2023-04-15T09:55:17.242Z,34.06
2023-04-15T09:57:47.495Z,33.97
2023-04-15T10:00:16.505Z,33.66
2023-04-15T10:02:44.657Z,33.22
2023-04-15T10:05:15.515Z,33.05
2023-04-15T10:07:42.957Z,32.78
2023-04-15T10:10:14.256Z,32.70
2023-04-15T10:12:43.370Z,32.86
2023-04-15T10:15:28.397Z,32.70
2023-04-15T10:18:01.353Z,32.46
2023-04-15T10:20:33.752Z,32.41
2023-04-15T10:23:03.012Z,32.20
2023-04-15T10:25:35.944Z,32.29
2023-04-15T10:28:03.691Z,32.13
2023-04-15T10:30:33.725Z,31.84
2023-04-15T10:33:05.310Z,31.73
2023-04-15T10:35:40.948Z,31.38
2023-04-15T10:38:43.520Z,32.25
2023-04-15T10:41:28.208Z,31.91
2023-04-15T10:44:07.025Z,31.53
2023-04-15T10:46:43.839Z,31.02
2023-04-15T10:49:17.417Z,31.36
2023-04-15T10:51:59.870Z,31.10
2023-04-15T10:54:28.657Z,30.95
2023-04-15T10:57:01.768Z,31.34
2023-04-15T11:00:00.596Z,31.31
2023-04-15T11:03:08.336Z,31.72
2023-04-15T11:05:56.297Z,31.84
2023-04-15T11:09:01.888Z,32.18
2023-04-15T11:12:08.999Z,32.31
2023-04-15T11:14:41.912Z,32.20
2023-04-15T11:17:09.559Z,32.52
2023-04-15T11:19:43.625Z,32.29
2023-04-15T11:22:11.841Z,32.28
2023-04-15T11:24:52.220Z,32.04
2023-04-15T11:27:23.951Z,32.27
2023-04-15T11:29:52.808Z,32.51
2023-04-15T11:32:23.559Z,32.14
2023-04-15T11:35:04.688Z,31.85
2023-04-15T11:37:32.485Z,31.97
2023-04-15T11:40:07.305Z,32.22
2023-04-15T11:42:48.729Z,32.57
2023-04-15T11:45:17.064Z,32.80
2023-04-15T11:47:53.647Z,32.94
2023-04-15T11:50:26.132Z,33.33
2023-04-15T11:53:01.367Z,33.64
2023-04-15T11:55:29.985Z,33.27
2023-04-15T11:58:14.456Z,33.22
2023-04-15T12:00:54.636Z,33.25
2023-04-15T12:03:42.596Z,32.61
2023-04-15T12:06:22.637Z,32.73
2023-04-15T12:08:56.112Z,33.17
2023-04-15T12:11:53.875Z,32.32
2023-04-15T12:14:33.865Z,31.68
2023-04-15T12:17:02.932Z,32.41
2023-04-15T12:19:43.224Z,32.10
2023-04-15T12:22:16.844Z,32.46
2023-04-15T12:24:48.126Z,32.41
2023-04-15T12:27:17.257Z,31.71
2023-04-15T12:29:45.389Z,31.73
2023-04-15T12:32:14.794Z,32.07
2023-04-15T12:34:58.636Z,32.50
2023-04-15T12:37:26.604Z,32.70
2023-04-15T12:39:56.020Z,32.01
2023-04-15T12:42:23.531Z,31.33
2023-04-15T12:44:51.441Z,30.72
2023-04-15T12:47:19.224Z,30.53
2023-04-15T12:49:49.715Z,29.87
2023-04-15T12:52:16.832Z,29.51
2023-04-15T12:54:44.885Z,29.63
2023-04-15T12:57:12.242Z,29.75
2023-04-15T12:59:43.200Z,30.34
2023-04-15T13:02:14.218Z,30.11
2023-04-15T13:04:42.018Z,30.32
2023-04-15T13:07:14.490Z,30.24
2023-04-15T13:09:44.841Z,30.39
2023-04-15T13:12:13.986Z,31.09
2023-04-15T13:14:41.398Z,31.74
2023-04-15T13:17:10.196Z,32.51
2023-04-15T13:19:37.190Z,32.80
2023-04-15T13:22:04.020Z,32.61
2023-04-15T13:24:31.026Z,33.21
2023-04-15T13:26:59.168Z,33.17
2023-04-15T13:29:26.489Z,33.18
2023-04-15T13:31:53.380Z,33.45
2023-04-15T13:34:20.212Z,33.04
2023-04-15T13:36:47.264Z,32.43
2023-04-15T13:39:14.139Z,32.41
2023-04-15T13:41:41.673Z,32.10
2023-04-15T13:44:09.537Z,32.33
2023-04-15T13:46:37.990Z,32.15
2023-04-15T13:49:04.879Z,32.25
2023-04-15T13:51:33.253Z,32.58
2023-04-15T13:54:07.254Z,32.47
2023-04-15T13:56:42.604Z,32.60
2023-04-15T13:59:10.208Z,32.50
2023-04-15T14:01:37.128Z,32.81
2023-04-15T14:04:05.420Z,33.19
2023-04-15T14:06:33.856Z,32.89
2023-04-15T14:09:00.892Z,32.99
2023-04-15T14:11:30.176Z,33.06
2023-04-15T14:14:06.975Z,32.47
2023-04-15T14:16:37.856Z,32.22
2023-04-15T14:19:18.899Z,32.19
2023-04-15T14:21:46.532Z,32.62
2023-04-15T14:24:15.661Z,32.01
2023-04-15T14:26:44.892Z,32.21
2023-04-15T14:29:13.205Z,31.94
2023-04-15T14:31:44.781Z,32.06
2023-04-15T14:34:32.086Z,32.39
2023-04-15T14:36:59.129Z,32.45
2023-04-15T14:39:29.083Z,32.24
2023-04-15T14:42:02.292Z,32.35
2023-04-15T14:44:39.474Z,32.59
2023-04-15T14:47:07.675Z,32.53
2023-04-15T14:49:37.541Z,32.67
2023-04-15T14:52:07.428Z,32.99
2023-04-15T14:54:36.395Z,33.20
2023-04-15T14:57:04.185Z,33.14
2023-04-15T14:59:32.217Z,33.04
2023-04-15T15:01:59.922Z,32.99
2023-04-15T15:04:33.749Z,33.29
2023-04-15T15:07:01.763Z,33.07
2023-04-15T15:09:30.419Z,32.99
2023-04-15T15:12:01.534Z,33.12
2023-04-15T15:14:28.692Z,33.51
2023-04-15T15:16:58.584Z,33.60
2023-04-15T15:19:29.156Z,33.44
2023-04-15T15:21:57.118Z,33.16
2023-04-15T15:24:24.550Z,33.23
2023-04-15T15:26:52.517Z,33.03
2023-04-15T15:29:22.204Z,33.32
2023-04-15T15:31:50.462Z,33.07
2023-04-15T15:34:20.903Z,32.92
2023-04-15T15:36:51.889Z,33.25
2023-04-15T15:39:19.108Z,33.05
2023-04-15T15:41:45.951Z,33.26
2023-04-15T15:44:13.369Z,33.45
2023-04-15T15:46:40.850Z,33.01
2023-04-15T15:49:12.889Z,32.65
2023-04-15T15:51:40.113Z,32.76
2023-04-15T15:54:07.238Z,32.81
2023-04-15T15:56:39.163Z,32.73
2023-04-15T15:59:07.962Z,32.80
2023-04-15T16:01:36.867Z,32.81
2023-04-15T16:04:12.135Z,32.88
2023-04-15T16:06:41.175Z,33.08
2023-04-15T16:09:08.184Z,33.17
2023-04-15T16:11:35.381Z,33.50
2023-04-15T16:14:03.609Z,33.52
2023-04-15T16:16:31.626Z,33.71
2023-04-15T16:18:59.069Z,33.92
2023-04-15T16:21:27.548Z,34.64
2023-04-15T16:23:55.181Z,35.05
2023-04-15T16:26:27.787Z,35.80
2023-04-15T16:28:56.452Z,36.26
2023-04-15T16:31:27.022Z,36.56
2023-04-15T16:33:54.354Z,37.06
2023-04-15T16:36:22.191Z,37.33
2023-04-15T16:38:53.560Z,37.52
2023-04-15T16:41:21.098Z,38.04
2023-04-15T16:43:54.488Z,38.53
2023-04-15T16:46:21.811Z,39.08
2023-04-15T16:48:53.413Z,39.84
2023-04-15T16:51:20.745Z,40.57
2023-04-15T16:53:52.783Z,40.89
2023-04-15T16:56:21.629Z,41.46
2023-04-15T16:58:48.849Z,41.98
2023-04-15T17:01:16.219Z,42.20
2023-04-15T17:03:44.086Z,42.91
2023-04-15T17:06:16.412Z,43.16
2023-04-15T17:08:44.942Z,43.55
2023-04-15T17:11:12.434Z,43.83
2023-04-15T17:13:39.612Z,43.98
2023-04-15T17:16:12.080Z,44.30
2023-04-15T17:18:38.989Z,44.50
2023-04-15T17:21:06.156Z,44.77
2023-04-15T17:23:40.064Z,45.52
2023-04-15T17:26:06.920Z,45.06
2023-04-15T17:28:34.385Z,45.43
2023-04-15T17:31:01.864Z,45.55
2023-04-15T17:33:56.354Z,45.76
2023-04-15T17:36:19.582Z,45.74
2023-04-15T17:38:47.020Z,46.04
2023-04-15T17:41:14.103Z,46.51
2023-04-15T17:43:41.378Z,46.62
2023-04-15T17:46:08.368Z,47.12
2023-04-15T17:48:35.344Z,47.13
2023-04-15T17:51:02.518Z,47.68
2023-04-15T17:53:29.439Z,47.67
2023-04-15T17:55:57.570Z,47.97
2023-04-15T17:58:24.468Z,47.88
2023-04-15T18:00:51.289Z,47.93
2023-04-15T18:03:18.176Z,48.51
2023-04-15T18:05:45.224Z,48.52
2023-04-15T18:08:12.076Z,48.80
2023-04-15T18:10:39.406Z,49.12
2023-04-15T18:13:06.448Z,49.25
2023-04-15T18:15:33.382Z,49.29
2023-04-15T18:18:00.936Z,49.62
2023-04-15T18:20:29.522Z,49.82
2023-04-15T18:22:57.009Z,49.95
2023-04-15T18:25:23.917Z,49.89
2023-04-15T18:27:50.869Z,50.17
2023-04-15T18:30:17.708Z,50.43
2023-04-15T18:32:44.729Z,50.38
2023-04-15T18:35:11.775Z,50.46
2023-04-15T18:37:38.918Z,50.43
2023-04-15T18:40:07.425Z,50.75
2023-04-15T18:42:34.207Z,50.91
2023-04-15T18:45:01.076Z,51.00
2023-04-15T18:47:28.178Z,51.00
2023-04-15T18:49:55.246Z,51.43
2023-04-15T18:52:22.093Z,51.47
2023-04-15T18:54:49.199Z,51.63
2023-04-15T18:57:23.539Z,52.12
2023-04-15T18:59:59.939Z,51.96
2023-04-15T19:02:27.067Z,51.91
2023-04-15T19:04:53.971Z,52.14
2023-04-15T19:07:20.848Z,52.07
2023-04-15T19:09:47.726Z,52.33
2023-04-15T19:12:14.535Z,52.35
2023-04-15T19:14:41.615Z,52.44
2023-04-15T19:17:08.418Z,52.77
2023-04-15T19:19:35.349Z,52.59
2023-04-15T19:22:03.448Z,52.19
2023-04-15T19:24:33.109Z,52.36
2023-04-15T19:27:01.380Z,52.73
2023-04-15T19:29:28.701Z,52.80
2023-04-15T19:31:55.996Z,52.90
2023-04-15T19:34:23.129Z,53.16
2023-04-15T19:36:50.044Z,53.04
2023-04-15T19:39:18.519Z,52.99
2023-04-15T19:41:45.827Z,53.41
2023-04-15T19:44:13.490Z,53.51
2023-04-15T19:46:43.527Z,53.58
2023-04-15T19:49:10.725Z,53.60
2023-04-15T19:51:37.572Z,53.90
2023-04-15T19:54:04.406Z,53.77
2023-04-15T19:56:32.921Z,53.68
2023-04-15T19:59:02.158Z,53.63
2023-04-15T20:01:29.142Z,53.65
2023-04-15T20:03:56.251Z,53.89
2023-04-15T20:06:23.262Z,53.67
2023-04-15T20:08:50.223Z,53.92
2023-04-15T20:11:17.014Z,54.11
2023-04-15T20:13:43.843Z,54.07
2023-04-15T20:16:11.677Z,54.06
2023-04-15T20:18:39.069Z,53.93
2023-04-15T20:21:05.993Z,54.07
2023-04-15T20:23:35.667Z,54.23
2023-04-15T20:26:02.481Z,54.15
2023-04-15T20:28:29.438Z,54.30
2023-04-15T20:30:56.336Z,54.32
2023-04-15T20:33:24.656Z,54.17
2023-04-15T20:35:51.847Z,54.46
2023-04-15T20:38:18.813Z,54.27
2023-04-15T20:40:45.723Z,54.60
2023-04-15T20:43:12.677Z,54.63
2023-04-15T20:45:39.581Z,54.54
2023-04-15T20:48:06.687Z,54.43
2023-04-15T20:50:33.633Z,54.44
2023-04-15T20:53:00.793Z,54.63
2023-04-15T20:55:28.988Z,54.64
2023-04-15T20:57:58.237Z,54.22
2023-04-15T21:00:25.222Z,54.81
2023-04-15T21:02:52.121Z,54.75
2023-04-15T21:05:19.015Z,54.66
2023-04-15T21:07:45.811Z,54.46
2023-04-15T21:10:12.627Z,54.69
2023-04-15T21:12:41.001Z,55.14
2023-04-15T21:15:08.913Z,54.91
2023-04-15T21:17:35.772Z,54.73
2023-04-15T21:20:05.221Z,54.83
2023-04-15T21:22:32.350Z,54.75
2023-04-15T21:24:59.210Z,54.74
2023-04-15T21:27:26.183Z,54.92
2023-04-15T21:29:53.048Z,55.05
2023-04-15T21:32:19.949Z,55.18
2023-04-15T21:34:46.788Z,55.22
2023-04-15T21:37:13.662Z,55.21
2023-04-15T21:39:40.581Z,55.22
2023-04-15T21:42:07.412Z,55.30
2023-04-15T21:44:34.208Z,55.49
2023-04-15T21:47:01.118Z,55.52
2023-04-15T21:49:27.974Z,55.25
2023-04-15T21:51:54.807Z,55.47
2023-04-15T21:54:21.646Z,55.36
2023-04-15T21:56:49.678Z,55.31
2023-04-15T21:59:16.589Z,55.50
2023-04-15T22:01:43.537Z,55.78
2023-04-15T22:04:11.183Z,55.59
2023-04-15T22:06:38.610Z,55.83
2023-04-15T22:09:05.748Z,55.84
2023-04-15T22:11:32.920Z,55.83
2023-04-15T22:14:01.077Z,55.89
2023-04-15T22:16:28.489Z,56.05
2023-04-15T22:18:56.102Z,56.03
2023-04-15T22:21:23.443Z,55.99
2023-04-15T22:23:51.032Z,56.24
2023-04-15T22:26:17.837Z,56.29
2023-04-15T22:28:45.239Z,56.32
2023-04-15T22:31:12.189Z,56.39
2023-04-15T22:33:39.168Z,56.18
2023-04-15T22:36:06.299Z,56.55
2023-04-15T22:38:33.775Z,56.33
2023-04-15T22:41:00.558Z,56.29
2023-04-15T22:43:27.721Z,56.39
2023-04-15T22:45:54.909Z,56.38
2023-04-15T22:48:22.129Z,56.30
2023-04-15T22:50:49.393Z,56.41
2023-04-15T22:53:20.016Z,56.05
2023-04-15T22:55:48.462Z,56.33
2023-04-15T22:58:16.940Z,56.10
2023-04-15T23:00:44.587Z,56.38
2023-04-15T23:03:12.425Z,56.05
2023-04-15T23:05:41.045Z,56.32
2023-04-15T23:08:08.099Z,56.13
2023-04-15T23:10:34.876Z,56.10
2023-04-15T23:13:01.802Z,56.24
2023-04-15T23:15:28.819Z,56.36
2023-04-15T23:17:55.688Z,56.05
2023-04-15T23:20:22.583Z,56.28
2023-04-15T23:22:49.564Z,56.00
2023-04-15T23:25:16.582Z,56.13
2023-04-15T23:27:43.491Z,56.14
2023-04-15T23:30:11.812Z,56.24
2023-04-15T23:32:38.866Z,56.38
2023-04-15T23:35:06.129Z,56.39
2023-04-15T23:37:32.972Z,56.30
2023-04-15T23:39:59.833Z,56.25
2023-04-15T23:42:27.009Z,56.67
2023-04-15T23:44:53.916Z,56.44
2023-04-15T23:47:21.659Z,56.47
2023-04-15T23:49:48.582Z,56.43
2023-04-15T23:52:16.523Z,56.44
2023-04-15T23:54:43.317Z,56.36
2023-04-15T23:57:12.693Z,56.51
2023-04-15T23:59:39.882Z,56.43
